Time;durP1;ratioP1;P1;durP2;ratioP2;P2;SDS_P1;SDS_P2;PMS_P1;PMS_P2;Temp;Humidity;BMP_temperature;BMP_pressure;BME280_temperature;BME280_humidity;BME280_pressure;Samples;Min_cycle;Max_cycle;Signal;HPM_P1;HPM_P2
2022/04/21 00:01:08;;;;;;;12.20;8.47;;;9.60;99.90;;;;;;5008331;28;20545;-85
2022/04/21 00:03:35;;;;;;;16.13;8.03;;;9.50;99.90;;;;;;5016299;28;20236;-83
2022/04/21 00:06:02;;;;;;;15.87;9.73;;;9.50;99.90;;;;;;5015769;28;20284;-83
2022/04/21 00:08:29;;;;;;;15.13;7.83;;;9.40;99.90;;;;;;5001316;28;20231;-83
2022/04/21 00:10:57;;;;;;;16.37;8.20;;;9.40;99.90;;;;;;4997365;28;20201;-84
2022/04/21 00:13:23;;;;;;;11.30;7.27;;;9.40;99.90;;;;;;5005366;28;20254;-82
2022/04/21 00:15:50;;;;;;;10.87;7.30;;;9.30;99.90;;;;;;5025824;28;20248;-83
2022/04/21 00:18:17;;;;;;;16.60;8.40;;;9.30;99.90;;;;;;5020007;28;20204;-85
2022/04/21 00:20:44;;;;;;;13.07;8.07;;;9.30;99.90;;;;;;4998395;28;20239;-85
2022/04/21 00:23:26;;;;;;;12.23;8.07;;;9.20;99.90;;;;;;5009044;28;20214;-84
2022/04/21 00:26:00;;;;;;;14.13;8.00;;;9.20;99.90;;;;;;5023086;28;20250;-83
2022/04/21 00:28:28;;;;;;;13.20;8.00;;;9.10;99.90;;;;;;5018928;28;20227;-82
2022/04/21 00:30:56;;;;;;;15.07;8.70;;;9.10;99.90;;;;;;5016227;28;20270;-83
2022/04/21 00:33:23;;;;;;;14.73;7.50;;;9.10;99.90;;;;;;5019328;28;20681;-83
2022/04/21 00:35:54;;;;;;;12.83;7.97;;;9.10;99.90;;;;;;4996426;28;20221;-84
2022/04/21 00:38:21;;;;;;;12.60;7.77;;;9.10;99.90;;;;;;5005767;28;20222;-83
2022/04/21 00:40:49;;;;;;;12.03;7.33;;;9.10;99.90;;;;;;5028155;28;20240;-84
2022/04/21 00:43:17;;;;;;;11.80;8.00;;;9.00;99.90;;;;;;5002341;28;20207;-83
2022/04/21 00:45:44;;;;;;;10.77;6.93;;;8.90;99.90;;;;;;5002805;28;20210;-85
2022/04/21 00:48:11;;;;;;;10.00;7.53;;;9.00;99.90;;;;;;5000476;28;20322;-85
2022/04/21 00:50:38;;;;;;;12.57;7.53;;;9.00;99.90;;;;;;5008659;28;20696;-83
2022/04/21 00:53:07;;;;;;;11.03;7.13;;;8.90;99.90;;;;;;5001021;28;20219;-84
2022/04/21 00:55:39;;;;;;;13.10;7.50;;;8.90;99.90;;;;;;5020395;28;20598;-83
2022/04/21 00:58:07;;;;;;;11.93;6.87;;;9.00;99.90;;;;;;5019130;28;20215;-82
2022/04/21 01:00:35;;;;;;;12.97;7.80;;;9.00;99.90;;;;;;5001893;28;20241;-83
2022/04/21 01:03:04;;;;;;;15.63;8.17;;;9.00;99.90;;;;;;5003158;28;20212;-83
2022/04/21 01:05:33;;;;;;;9.53;7.10;;;9.10;99.90;;;;;;5014065;28;20222;-84
2022/04/21 01:08:04;;;;;;;10.37;6.83;;;9.10;99.90;;;;;;5006337;28;20226;-84
2022/04/21 01:10:37;;;;;;;11.43;6.70;;;9.20;99.90;;;;;;5023558;28;20266;-84
2022/04/21 01:13:09;;;;;;;11.83;7.20;;;9.20;99.90;;;;;;5009829;28;20204;-83
2022/04/21 01:15:37;;;;;;;11.33;6.97;;;9.20;99.90;;;;;;5002681;28;20236;-83
2022/04/21 01:18:05;;;;;;;10.93;6.50;;;9.30;99.90;;;;;;5018693;28;20214;-84
2022/04/21 01:20:33;;;;;;;14.93;7.67;;;9.30;99.90;;;;;;5016199;28;20219;-83
2022/04/21 01:23:00;;;;;;;10.03;6.73;;;9.30;99.90;;;;;;5003166;28;20360;-82
2022/04/21 01:25:37;;;;;;;12.47;7.30;;;9.30;99.90;;;;;;5019292;28;20207;-84
2022/04/21 01:28:04;;;;;;;13.43;6.57;;;9.40;99.90;;;;;;5010247;28;20213;-83
2022/04/21 01:30:31;;;;;;;13.47;7.33;;;9.30;99.90;;;;;;5020179;28;20278;-83
2022/04/21 01:32:58;;;;;;;13.03;7.60;;;9.30;99.90;;;;;;5009533;28;20258;-83
2022/04/21 01:35:25;;;;;;;13.33;7.37;;;9.30;99.90;;;;;;5016424;28;20212;-82
2022/04/21 01:43:23;;;;;;;12.47;7.50;;;9.20;99.90;;;;;;5018477;28;20713;-85
2022/04/21 01:45:50;;;;;;;14.00;7.43;;;9.20;99.90;;;;;;5009421;28;20214;-83
2022/04/21 01:48:18;;;;;;;12.03;7.30;;;9.20;99.90;;;;;;5022911;28;20205;-84
2022/04/21 01:50:45;;;;;;;13.07;7.17;;;9.10;99.90;;;;;;5004692;28;20293;-82
2022/04/21 01:53:12;;;;;;;10.70;6.63;;;9.10;99.90;;;;;;5019690;28;20345;-84
2022/04/21 01:55:40;;;;;;;13.20;7.20;;;9.00;99.90;;;;;;5017610;28;20314;-85
2022/04/21 01:58:07;;;;;;;14.30;7.53;;;9.00;99.90;;;;;;5010286;28;20212;-85
2022/04/21 02:00:35;;;;;;;11.67;7.00;;;8.90;99.90;;;;;;5030702;28;20233;-85
2022/04/21 02:03:01;;;;;;;10.17;6.63;;;9.00;99.90;;;;;;5002446;28;20216;-85
2022/04/21 02:05:30;;;;;;;12.80;6.97;;;8.90;99.90;;;;;;5003850;28;20335;-85
2022/04/21 02:07:57;;;;;;;12.73;7.07;;;8.90;99.90;;;;;;5006453;28;20221;-83
2022/04/21 02:10:25;;;;;;;15.40;7.70;;;8.90;99.90;;;;;;5018132;28;20274;-84
2022/04/21 02:12:52;;;;;;;11.23;6.77;;;8.80;99.90;;;;;;5011468;28;20213;-83
2022/04/21 02:15:19;;;;;;;13.17;8.27;;;8.80;99.90;;;;;;5013292;28;20225;-83
2022/04/21 02:17:46;;;;;;;10.67;7.40;;;8.80;99.90;;;;;;5011377;28;20236;-84
2022/04/21 02:20:15;;;;;;;14.50;7.73;;;8.70;99.90;;;;;;5020799;28;20734;-82
2022/04/21 02:22:46;;;;;;;12.23;7.53;;;8.70;99.90;;;;;;5008281;28;20217;-83
2022/04/21 02:25:15;;;;;;;14.07;7.70;;;8.60;99.90;;;;;;5027546;28;20236;-83
2022/04/21 02:27:47;;;;;;;14.33;8.60;;;8.60;99.90;;;;;;5005327;28;20283;-82
2022/04/21 02:30:16;;;;;;;17.10;8.33;;;8.60;99.90;;;;;;5020192;28;20232;-83
2022/04/21 02:32:43;;;;;;;12.93;7.50;;;8.50;99.90;;;;;;5008486;28;20255;-83
2022/04/21 02:35:11;;;;;;;12.37;7.63;;;8.50;99.90;;;;;;5007780;28;20661;-82
2022/04/21 02:37:45;;;;;;;13.23;7.83;;;8.40;99.90;;;;;;5020498;28;20718;-83
2022/04/21 02:40:13;;;;;;;11.07;7.17;;;8.40;99.90;;;;;;5002663;28;20298;-83
2022/04/21 02:42:41;;;;;;;12.80;8.00;;;8.40;99.90;;;;;;5007225;28;20225;-84
2022/04/21 02:45:13;;;;;;;12.07;8.20;;;8.40;99.90;;;;;;5021956;28;20217;-83
2022/04/21 02:47:42;;;;;;;15.13;8.13;;;8.30;99.90;;;;;;5017432;28;20202;-86
2022/04/21 02:50:11;;;;;;;12.93;8.43;;;8.30;99.90;;;;;;5004582;28;20213;-82
2022/04/21 02:52:42;;;;;;;15.00;8.33;;;8.20;99.90;;;;;;5023625;28;20689;-82
2022/04/21 02:57:56;;;;;;;15.53;8.20;;;8.20;99.90;;;;;;5025403;28;20198;-83
2022/04/21 03:00:23;;;;;;;10.27;7.60;;;8.10;99.90;;;;;;5019432;28;20230;-83
2022/04/21 03:02:51;;;;;;;16.03;9.17;;;8.00;99.90;;;;;;5020571;28;20575;-85
2022/04/21 03:05:19;;;;;;;17.40;9.57;;;8.00;99.90;;;;;;5026024;28;20201;-85
2022/04/21 03:07:46;;;;;;;14.67;9.27;;;7.90;99.90;;;;;;5023985;28;20221;-85
2022/04/21 03:10:14;;;;;;;16.67;9.30;;;8.00;99.90;;;;;;5014921;28;20213;-83
2022/04/21 03:12:41;;;;;;;14.63;8.70;;;7.90;99.90;;;;;;5007990;28;20486;-84
2022/04/21 03:15:11;;;;;;;12.60;8.87;;;7.80;99.90;;;;;;5017606;28;20216;-84
2022/04/21 03:17:39;;;;;;;16.07;9.23;;;7.80;99.90;;;;;;5017758;28;20217;-84
2022/04/21 03:20:06;;;;;;;16.60;9.67;;;7.80;99.90;;;;;;5004722;28;20339;-85
2022/04/21 03:25:20;;;;;;;17.30;9.40;;;7.70;99.90;;;;;;5020992;28;20241;-84
2022/04/21 03:27:50;;;;;;;20.33;9.10;;;7.70;99.90;;;;;;5004622;28;20711;-83
2022/04/21 03:30:17;;;;;;;16.30;8.80;;;7.60;99.90;;;;;;5017049;28;20212;-83
2022/04/21 03:32:44;;;;;;;13.60;8.70;;;7.60;99.90;;;;;;5023291;28;20195;-84
2022/04/21 03:35:12;;;;;;;18.80;9.60;;;7.70;99.90;;;;;;5015562;28;20297;-85
2022/04/21 03:37:39;;;;;;;14.47;8.70;;;7.60;99.90;;;;;;5000218;28;20223;-84
2022/04/21 03:40:06;;;;;;;15.87;9.87;;;7.60;99.90;;;;;;5006751;28;20232;-84
2022/04/21 03:42:33;;;;;;;14.67;9.60;;;7.60;99.90;;;;;;5014725;28;20695;-84
2022/04/21 03:45:00;;;;;;;17.50;9.90;;;7.50;99.90;;;;;;5010728;28;20217;-83
2022/04/21 03:47:27;;;;;;;13.43;7.83;;;7.50;99.90;;;;;;5018935;28;20225;-85
2022/04/21 03:49:54;;;;;;;12.90;8.97;;;7.50;99.90;;;;;;5012844;28;20206;-84
2022/04/21 03:52:22;;;;;;;14.83;9.03;;;7.40;99.90;;;;;;5016026;28;20337;-83
2022/04/21 03:54:49;;;;;;;13.03;9.03;;;7.40;99.90;;;;;;5005439;28;20216;-83
2022/04/21 03:57:16;;;;;;;15.97;9.80;;;7.40;99.90;;;;;;4999959;28;20210;-85
2022/04/21 03:59:43;;;;;;;14.43;10.20;;;7.30;99.90;;;;;;5020645;28;20321;-83
2022/04/21 04:02:09;;;;;;;14.70;9.00;;;7.30;99.90;;;;;;5005697;28;20672;-83
2022/04/21 04:04:37;;;;;;;16.03;9.20;;;7.30;99.90;;;;;;4999080;28;20293;-83
2022/04/21 04:12:38;;;;;;;14.97;9.00;;;7.10;99.90;;;;;;5020131;28;20223;-82
2022/04/21 04:15:07;;;;;;;15.63;8.60;;;7.10;99.90;;;;;;5007724;28;20713;-83
2022/04/21 04:17:35;;;;;;;14.50;8.77;;;7.00;99.90;;;;;;5009086;28;20235;-81
2022/04/21 04:20:03;;;;;;;17.00;10.03;;;7.00;99.90;;;;;;5017666;28;20212;-84
2022/04/21 04:22:34;;;;;;;14.83;8.63;;;7.00;99.90;;;;;;5001894;28;20229;-84
2022/04/21 04:25:02;;;;;;;14.93;9.37;;;6.90;99.90;;;;;;5018231;28;20621;-83
2022/04/21 04:27:29;;;;;;;16.07;8.63;;;6.90;99.90;;;;;;5003325;28;21050;-83
2022/04/21 04:29:56;;;;;;;15.53;9.50;;;7.00;99.90;;;;;;5007084;28;20242;-83
2022/04/21 04:32:23;;;;;;;14.90;8.93;;;6.90;99.90;;;;;;5020992;28;20215;-84
2022/04/21 04:34:50;;;;;;;13.93;9.47;;;6.90;99.90;;;;;;5000635;28;20266;-84
2022/04/21 04:37:17;;;;;;;13.87;9.37;;;6.90;99.90;;;;;;4999885;28;20226;-84
2022/04/21 04:39:43;;;;;;;14.10;9.27;;;6.90;99.90;;;;;;5021556;28;20207;-85
2022/04/21 04:42:16;;;;;;;16.37;9.27;;;6.90;99.90;;;;;;5000199;28;20231;-86
2022/04/21 04:44:48;;;;;;;18.37;9.87;;;6.90;99.90;;;;;;5004722;28;20207;-83
2022/04/21 04:47:15;;;;;;;13.77;9.03;;;6.90;99.90;;;;;;5008836;28;20370;-83
2022/04/21 04:49:42;;;;;;;15.87;9.10;;;6.90;99.90;;;;;;5017282;28;20258;-82
2022/04/21 04:52:09;;;;;;;14.77;9.73;;;6.80;99.90;;;;;;5019670;28;20224;-84
2022/04/21 04:54:36;;;;;;;13.97;8.77;;;6.90;99.90;;;;;;5005599;28;20212;-82
2022/04/21 04:57:03;;;;;;;12.50;8.50;;;6.90;99.90;;;;;;5022194;28;20223;-82
2022/04/21 04:59:30;;;;;;;17.57;10.17;;;7.00;99.90;;;;;;5015365;28;20593;-83
2022/04/21 05:01:58;;;;;;;15.60;9.43;;;6.90;99.90;;;;;;5024525;28;20759;-82
2022/04/21 05:04:25;;;;;;;16.93;8.83;;;6.90;99.90;;;;;;5000526;28;20713;-83
2022/04/21 05:06:55;;;;;;;13.07;8.43;;;7.00;99.90;;;;;;5020768;28;20231;-84
2022/04/21 05:09:24;;;;;;;21.10;9.97;;;7.00;99.90;;;;;;5016891;28;20221;-84
2022/04/21 05:11:53;;;;;;;13.73;8.60;;;7.00;99.90;;;;;;5003017;28;20262;-82
2022/04/21 05:14:22;;;;;;;12.80;9.10;;;7.00;99.90;;;;;;5006509;28;20363;-83
2022/04/21 05:16:49;;;;;;;12.73;8.90;;;7.00;99.90;;;;;;5015046;28;20221;-83
2022/04/21 05:19:21;;;;;;;15.57;9.07;;;7.10;99.90;;;;;;5026141;28;20680;-83
2022/04/21 05:21:51;;;;;;;12.37;9.03;;;7.10;99.90;;;;;;5022783;28;21212;-82
2022/04/21 05:24:19;;;;;;;15.87;8.90;;;7.10;99.90;;;;;;5006999;28;20613;-83
2022/04/21 05:26:46;;;;;;;16.47;9.43;;;7.20;99.90;;;;;;5023347;28;20204;-82
2022/04/21 05:32:02;;;;;;;14.20;9.20;;;7.30;99.90;;;;;;5021440;28;20205;-83
2022/04/21 05:34:31;;;;;;;16.00;9.60;;;7.30;99.90;;;;;;5012554;28;20215;-83
2022/04/21 05:36:59;;;;;;;12.23;8.80;;;7.30;99.90;;;;;;5001541;28;20224;-84
2022/04/21 05:39:27;;;;;;;19.03;9.20;;;7.40;99.90;;;;;;5020786;28;20208;-83
2022/04/21 05:41:56;;;;;;;12.67;7.70;;;7.40;99.90;;;;;;5002554;28;20572;-84
2022/04/21 05:44:24;;;;;;;14.07;8.30;;;7.40;99.90;;;;;;4999634;28;20551;-84
2022/04/21 05:46:51;;;;;;;11.83;8.20;;;7.50;99.90;;;;;;5005763;28;20213;-83
2022/04/21 05:49:18;;;;;;;17.67;7.90;;;7.50;99.90;;;;;;4997362;28;20212;-84
2022/04/21 05:51:46;;;;;;;14.70;7.77;;;7.60;99.90;;;;;;5002578;28;20692;-83
2022/04/21 05:54:14;;;;;;;15.37;8.63;;;7.60;99.90;;;;;;4998056;28;20238;-83
2022/04/21 05:56:41;;;;;;;12.07;8.47;;;7.70;99.90;;;;;;5002004;28;20210;-85
2022/04/21 05:59:08;;;;;;;13.33;8.87;;;7.70;99.90;;;;;;5005529;28;20206;-82
2022/04/21 06:01:35;;;;;;;14.10;9.07;;;7.80;99.90;;;;;;5000591;28;20266;-85
2022/04/21 06:04:02;;;;;;;12.07;8.07;;;7.90;99.90;;;;;;5004614;28;20249;-84
2022/04/21 06:06:30;;;;;;;13.57;9.07;;;7.90;99.90;;;;;;5005250;28;20780;-83
2022/04/21 06:08:57;;;;;;;19.57;9.30;;;8.00;99.90;;;;;;5002709;28;20216;-83
2022/04/21 06:11:24;;;;;;;12.70;8.90;;;8.30;99.90;;;;;;5000040;28;20227;-81
2022/04/21 06:13:51;;;;;;;21.50;10.30;;;8.20;99.90;;;;;;5000853;28;20245;-87
2022/04/21 06:16:18;;;;;;;15.47;8.20;;;8.70;99.90;;;;;;5008181;28;20655;-81
2022/04/21 06:18:46;;;;;;;12.80;8.07;;;9.70;99.90;;;;;;5005345;28;20211;-83
2022/04/21 06:21:13;;;;;;;13.53;7.47;;;10.80;99.90;;;;;;5006645;28;20772;-87
2022/04/21 06:23:40;;;;;;;11.03;6.83;;;11.90;99.90;;;;;;4991572;28;20790;-86
2022/04/21 06:26:07;;;;;;;11.13;6.57;;;12.90;99.90;;;;;;5001473;28;20190;-85
2022/04/21 06:28:34;;;;;;;7.90;6.50;;;13.90;99.90;;;;;;4994192;28;20275;-86
2022/04/21 06:31:01;;;;;;;9.87;6.30;;;14.80;99.90;;;;;;5005517;28;20254;-87
2022/04/21 06:33:32;;;;;;;11.07;6.35;;;15.80;99.90;;;;;;5001322;28;20218;-88
2022/04/21 06:36:00;;;;;;;6.47;5.20;;;16.70;99.90;;;;;;5004158;28;20211;-86
2022/04/21 06:38:29;;;;;;;8.27;5.53;;;17.40;99.90;;;;;;5003856;28;20878;-85
2022/04/21 06:40:56;;;;;;;8.52;5.30;;;17.80;99.90;;;;;;5005638;28;20321;-87
2022/04/21 06:48:54;;;;;;;8.98;6.15;;;18.60;99.90;;;;;;5005491;28;20214;-86
2022/04/21 06:51:21;;;;;;;6.53;5.03;;;19.00;99.90;;;;;;5009739;28;20276;-87
2022/04/21 06:53:48;;;;;;;7.97;4.90;;;19.30;99.90;;;;;;5014203;28;20345;-87
2022/04/21 06:56:16;;;;;;;7.43;5.07;;;19.30;97.90;;;;;;5014255;28;20618;-89
2022/04/21 06:58:43;;;;;;;6.10;4.70;;;19.10;97.00;;;;;;5003361;28;20207;-80
2022/04/21 07:01:11;;;;;;;6.82;4.80;;;19.00;96.00;;;;;;5006356;28;20226;-86
2022/04/21 07:03:38;;;;;;;6.72;5.18;;;18.80;95.10;;;;;;5013521;28;20219;-90
2022/04/21 07:06:06;;;;;;;6.38;4.40;;;18.70;95.20;;;;;;5011103;28;20734;-90
2022/04/21 07:08:34;;;;;;;6.75;4.63;;;18.80;96.00;;;;;;5015747;28;20290;-89
2022/04/21 07:11:01;;;;;;;6.47;4.80;;;19.40;95.30;;;;;;5010131;28;20222;-90
2022/04/21 07:13:29;;;;;;;8.77;5.40;;;20.00;94.40;;;;;;5018751;28;20230;-88
2022/04/21 07:15:58;;;;;;;6.53;4.80;;;20.60;93.30;;;;;;5026237;28;20202;-91
2022/04/21 07:18:25;;;;;;;8.10;4.38;;;20.30;92.90;;;;;;5014862;28;20215;-92
2022/04/21 07:20:54;;;;;;;5.88;4.78;;;20.60;92.30;;;;;;5021482;28;20219;-89
2022/04/21 07:23:21;;;;;;;7.95;5.18;;;21.10;91.50;;;;;;5018418;28;20229;-89
2022/04/21 07:25:49;;;;;;;6.03;4.93;;;22.20;91.40;;;;;;5012332;28;20203;-92
2022/04/21 07:28:17;;;;;;;5.70;4.53;;;21.70;90.10;;;;;;5019631;28;20429;-90
2022/04/21 07:30:47;;;;;;;6.60;3.85;;;22.20;87.80;;;;;;5018507;28;20219;-90
2022/04/21 07:33:17;;;;;;;5.07;4.28;;;21.80;86.40;;;;;;5006354;28;20218;-89
2022/04/21 07:35:45;;;;;;;12.60;6.13;;;21.30;84.20;;;;;;5002950;28;20242;-90
2022/04/21 07:38:12;;;;;;;5.30;4.68;;;21.20;84.10;;;;;;4995911;28;20323;-88
2022/04/21 07:40:41;;;;;;;6.57;4.95;;;22.60;84.50;;;;;;5005877;28;20318;-89
2022/04/21 07:43:12;;;;;;;5.38;4.03;;;22.40;84.20;;;;;;4994240;28;20714;-90
2022/04/21 07:45:44;;;;;;;5.82;4.70;;;21.70;78.60;;;;;;5011157;28;20217;-89
2022/04/21 07:48:17;;;;;;;4.88;4.22;;;21.90;79.40;;;;;;5001178;28;20275;-87
2022/04/21 07:50:49;;;;;;;6.45;4.15;;;21.10;80.20;;;;;;5006904;28;20211;-88
2022/04/21 07:53:21;;;;;;;6.82;5.10;;;21.20;81.70;;;;;;5008263;28;20230;-88
2022/04/21 07:55:50;;;;;;;6.80;5.15;;;20.80;80.20;;;;;;5012045;28;20233;-89
2022/04/21 07:58:19;;;;;;;7.70;4.65;;;20.80;81.30;;;;;;5017171;28;20207;-89
2022/04/21 08:00:47;;;;;;;5.65;4.65;;;19.90;80.60;;;;;;5017358;28;20206;-88
2022/04/21 08:03:19;;;;;;;5.30;3.80;;;21.80;80.90;;;;;;5015708;28;20221;-90
2022/04/21 08:05:47;;;;;;;7.18;4.57;;;21.30;79.20;;;;;;5008411;28;20211;-88
2022/04/21 08:08:17;;;;;;;4.32;3.92;;;21.30;78.00;;;;;;5007884;28;20639;-90
2022/04/21 08:10:45;;;;;;;6.75;4.28;;;21.50;77.20;;;;;;5008569;28;20222;-90
2022/04/21 08:13:19;;;;;;;5.90;4.75;;;21.60;78.70;;;;;;5013779;28;20264;-91
2022/04/21 08:15:57;;;;;;;4.95;4.10;;;21.90;78.00;;;;;;5019305;28;20201;-89
2022/04/21 08:18:27;;;;;;;8.63;4.15;;;22.40;75.50;;;;;;5014084;28;20213;-90
2022/04/21 08:20:58;;;;;;;7.95;4.70;;;21.80;76.40;;;;;;5007938;28;20235;-90
2022/04/21 08:23:48;;;;;;;5.40;4.57;;;22.00;77.10;;;;;;5000067;28;20687;-88
2022/04/21 08:34:50;;;;;;;4.95;3.85;;;22.10;75.40;;;;;;5009640;28;20213;-89
2022/04/21 08:37:23;;;;;;;4.68;3.63;;;21.70;75.90;;;;;;5006384;28;20840;-87
2022/04/21 08:39:51;;;;;;;8.63;3.85;;;21.60;74.50;;;;;;4990783;28;20302;-89
2022/04/21 08:42:22;;;;;;;5.78;4.05;;;21.50;74.90;;;;;;5027328;28;20321;-86
2022/04/21 08:44:50;;;;;;;3.92;3.40;;;21.40;74.00;;;;;;5012056;28;20198;-88
2022/04/21 08:47:19;;;;;;;3.70;2.97;;;21.40;73.00;;;;;;5027429;28;20206;-87
2022/04/21 08:49:50;;;;;;;3.83;3.28;;;21.20;73.30;;;;;;5020193;28;20245;-88
2022/04/21 08:52:18;;;;;;;4.55;2.95;;;21.20;72.40;;;;;;5012216;28;20230;-88
2022/04/21 08:54:46;;;;;;;4.45;3.08;;;21.60;72.60;;;;;;5010442;28;20519;-87
2022/04/21 08:57:14;;;;;;;4.85;3.20;;;20.80;71.30;;;;;;5018079;28;20242;-88
2022/04/21 08:59:41;;;;;;;5.18;3.38;;;20.80;73.50;;;;;;5006224;28;20203;-82
2022/04/21 09:02:08;;;;;;;4.90;3.85;;;20.70;73.30;;;;;;5027509;28;20249;-87
2022/04/21 09:04:35;;;;;;;3.75;3.30;;;20.80;73.20;;;;;;5027758;28;20587;-86
2022/04/21 09:07:21;;;;;;;3.63;3.17;;;21.00;74.00;;;;;;5004484;28;20217;-87
2022/04/21 09:10:13;;;;;;;5.35;3.28;;;21.50;72.80;;;;;;5009965;28;20289;-86
2022/04/21 09:12:50;;;;;;;4.15;3.10;;;21.40;71.10;;;;;;5022756;28;20210;-86
2022/04/21 09:15:19;;;;;;;8.23;2.95;;;21.50;71.40;;;;;;5020407;28;20268;-88
2022/04/21 09:18:00;;;;;;;5.47;3.40;;;21.30;66.50;;;;;;5004505;28;20295;-90
2022/04/21 09:20:39;;;;;;;4.78;3.40;;;20.60;74.50;;;;;;5016352;28;20206;-86
2022/04/21 09:23:12;;;;;;;3.70;3.30;;;20.30;70.40;;;;;;5022731;28;20279;-86
2022/04/21 09:25:49;;;;;;;4.88;2.90;;;20.30;71.10;;;;;;5026713;28;20203;-86
2022/04/21 09:28:29;;;;;;;4.38;3.22;;;20.20;72.90;;;;;;5004852;28;20210;-88
2022/04/21 09:30:57;;;;;;;4.82;3.80;;;20.50;72.10;;;;;;5033709;28;20206;-88
2022/04/21 09:33:33;;;;;;;5.60;3.28;;;20.40;70.60;;;;;;5032065;28;20203;-87
2022/04/21 09:36:02;;;;;;;3.67;3.10;;;20.30;72.50;;;;;;5016055;28;20241;-87
2022/04/21 09:38:31;;;;;;;4.13;3.47;;;20.70;72.70;;;;;;5026905;28;20226;-87
2022/04/21 09:41:10;;;;;;;6.50;3.40;;;20.20;70.10;;;;;;5012173;28;20238;-86
2022/04/21 09:43:38;;;;;;;7.30;3.17;;;19.90;71.90;;;;;;5005316;28;20263;-86
2022/04/21 09:46:13;;;;;;;5.18;3.00;;;19.90;73.60;;;;;;5024829;28;20716;-86
2022/04/21 09:48:41;;;;;;;4.20;3.05;;;20.10;73.30;;;;;;5030792;28;20232;-87
2022/04/21 09:51:15;;;;;;;3.40;3.10;;;19.80;70.90;;;;;;5026887;28;20230;-85
2022/04/21 09:53:53;;;;;;;5.22;3.42;;;19.50;73.60;;;;;;5006327;28;20233;-87
2022/04/21 09:56:33;;;;;;;5.20;3.70;;;19.10;72.50;;;;;;5002855;28;20209;-86
2022/04/21 09:59:08;;;;;;;6.97;3.67;;;18.80;72.90;;;;;;5018963;28;20682;-88
2022/04/21 10:01:41;;;;;;;4.88;3.15;;;18.40;73.50;;;;;;5007738;28;20233;-86
2022/04/21 10:04:11;;;;;;;4.10;3.70;;;18.40;75.50;;;;;;5009899;28;20572;-86
2022/04/21 10:06:42;;;;;;;7.90;3.90;;;18.30;77.70;;;;;;5022011;28;20226;-85
2022/04/21 10:09:11;;;;;;;4.80;3.70;;;18.40;77.50;;;;;;5015080;28;20256;-86
2022/04/21 10:11:43;;;;;;;7.05;3.17;;;19.00;77.30;;;;;;5020278;28;20567;-85
2022/04/21 10:14:12;;;;;;;4.40;2.97;;;18.50;74.40;;;;;;5002196;28;20203;-84
2022/04/21 10:16:46;;;;;;;4.63;3.40;;;18.20;74.50;;;;;;5024064;28;20207;-85
2022/04/21 10:19:14;;;;;;;3.38;3.08;;;18.20;74.20;;;;;;5006976;28;20208;-83
2022/04/21 10:21:56;;;;;;;3.58;3.08;;;18.40;74.80;;;;;;5005658;28;20231;-85
2022/04/21 10:24:25;;;;;;;5.72;3.15;;;18.00;75.10;;;;;;5008871;28;20603;-85
2022/04/21 10:26:53;;;;;;;3.95;2.95;;;19.10;75.20;;;;;;5002951;28;20298;-84
2022/04/21 10:29:27;;;;;;;5.70;3.50;;;19.20;75.00;;;;;;5002959;28;20601;-86
2022/04/21 10:31:59;;;;;;;3.95;3.13;;;19.30;72.00;;;;;;5008256;28;20680;-88
2022/04/21 10:34:36;;;;;;;6.35;3.05;;;19.20;72.50;;;;;;5009939;28;20297;-85
2022/04/21 10:37:20;;;;;;;4.97;3.33;;;18.90;73.20;;;;;;5009269;28;20277;-83
2022/04/21 10:40:10;;;;;;;6.30;3.40;;;18.70;73.20;;;;;;5018106;28;20656;-84
2022/04/21 10:42:52;;;;;;;5.82;4.60;;;18.60;74.00;;;;;;5008482;28;20233;-85
2022/04/21 10:45:33;;;;;;;4.00;3.05;;;18.60;75.30;;;;;;5020258;28;20238;-84
2022/04/21 10:48:13;;;;;;;4.22;3.05;;;18.80;75.70;;;;;;5010680;28;20206;-85
2022/04/21 10:50:45;;;;;;;4.63;3.00;;;19.10;76.50;;;;;;5027236;28;20213;-85
2022/04/21 10:59:12;;;;;;;3.97;2.80;;;19.90;74.30;;;;;;5004960;28;20221;-83
2022/04/21 11:01:53;;;;;;;5.07;2.92;;;20.10;73.70;;;;;;5012220;28;20555;-85
2022/04/21 11:04:22;;;;;;;5.75;3.40;;;20.20;72.90;;;;;;5015829;28;20198;-84
2022/04/21 11:07:12;;;;;;;7.22;3.00;;;20.30;73.00;;;;;;5019791;28;20481;-84
2022/04/21 11:09:47;;;;;;;5.30;2.97;;;20.50;71.30;;;;;;5020443;28;20671;-86
2022/04/21 11:12:45;;;;;;;5.78;3.17;;;20.60;71.40;;;;;;5011991;28;20266;-84
2022/04/21 11:15:45;;;;;;;4.20;3.13;;;20.80;71.40;;;;;;5003718;28;20260;-86
2022/04/21 11:18:19;;;;;;;5.18;2.70;;;20.70;72.70;;;;;;5019701;28;20210;-85
2022/04/21 11:20:48;;;;;;;4.93;2.85;;;20.70;71.00;;;;;;5006514;28;20278;-83
2022/04/21 11:23:31;;;;;;;4.22;2.88;;;20.70;70.50;;;;;;5010615;28;20233;-85
2022/04/21 11:26:04;;;;;;;7.22;3.20;;;20.60;70.90;;;;;;5021201;28;20213;-84
2022/04/21 11:28:31;;;;;;;4.35;2.75;;;20.80;71.20;;;;;;5012028;28;20329;-86
2022/04/21 11:31:01;;;;;;;4.57;3.65;;;20.80;70.60;;;;;;5023829;28;20621;-85
2022/04/21 11:33:28;;;;;;;5.78;3.50;;;20.80;70.50;;;;;;5006234;28;20202;-85
2022/04/21 11:36:08;;;;;;;5.88;3.00;;;20.90;70.40;;;;;;5011416;28;20346;-86
2022/04/21 11:38:39;;;;;;;7.40;3.60;;;20.80;69.30;;;;;;5019058;28;20215;-83
2022/04/21 11:41:09;;;;;;;4.93;3.70;;;20.20;68.00;;;;;;5008458;28;20246;-83
2022/04/21 11:43:44;;;;;;;4.45;2.90;;;20.00;70.30;;;;;;5015881;28;20329;-84
2022/04/21 11:46:12;;;;;;;5.90;3.50;;;20.00;72.50;;;;;;5017021;28;20280;-83
2022/04/21 11:48:41;;;;;;;3.83;2.72;;;20.10;72.50;;;;;;5009271;28;20253;-84
2022/04/21 11:51:12;;;;;;;4.68;3.08;;;20.20;71.10;;;;;;5012578;28;20210;-84
2022/04/21 11:53:42;;;;;;;7.25;3.63;;;20.60;71.30;;;;;;5027660;28;20211;-86
2022/04/21 11:56:11;;;;;;;4.93;3.03;;;20.90;70.60;;;;;;5004129;28;20206;-85
2022/04/21 11:58:41;;;;;;;3.92;2.55;;;21.00;70.10;;;;;;5021593;28;20218;-78
2022/04/21 12:07:20;;;;;;;5.60;2.72;;;20.60;65.80;;;;;;4964313;28;20262;-90
2022/04/21 12:09:51;;;;;;;4.95;3.08;;;21.10;67.10;;;;;;4947438;28;20213;-90
2022/04/21 12:12:20;;;;;;;6.97;3.05;;;21.30;66.70;;;;;;4958117;28;20204;-91
2022/04/21 12:14:51;;;;;;;4.07;3.13;;;21.30;67.90;;;;;;4982499;28;20655;-92
2022/04/21 12:17:22;;;;;;;4.38;3.03;;;21.20;68.80;;;;;;5019244;28;20252;-90
2022/04/21 12:19:49;;;;;;;3.88;2.90;;;21.00;67.40;;;;;;5019770;28;20244;-93
2022/04/21 12:22:18;;;;;;;3.67;2.75;;;20.80;67.00;;;;;;5033486;28;20641;-91
2022/04/21 12:24:51;;;;;;;5.55;2.92;;;21.30;68.40;;;;;;5020651;28;20678;-93
2022/04/21 12:27:28;;;;;;;6.07;3.47;;;20.70;69.80;;;;;;5012231;28;20228;-90
2022/04/21 12:29:58;;;;;;;3.75;3.08;;;21.00;69.20;;;;;;5031232;28;20221;-89
2022/04/21 12:32:30;;;;;;;4.60;3.30;;;21.90;69.60;;;;;;5015401;28;20914;-92
2022/04/21 12:35:06;;;;;;;4.32;3.58;;;21.50;69.60;;;;;;5036051;28;20209;-88
2022/04/21 12:37:36;;;;;;;5.22;3.17;;;21.60;69.20;;;;;;5023311;28;20213;-89
2022/04/21 12:40:08;;;;;;;5.60;3.25;;;21.60;68.30;;;;;;5029731;28;20193;-91
2022/04/21 12:42:47;;;;;;;7.00;3.47;;;21.30;68.70;;;;;;5023563;28;20241;-90
2022/04/21 12:45:18;;;;;;;5.22;3.45;;;21.20;70.40;;;;;;5003120;28;20206;-92
2022/04/21 12:47:47;;;;;;;6.00;3.08;;;21.70;70.80;;;;;;5024514;28;20450;-91
2022/04/21 12:50:28;;;;;;;7.22;3.63;;;21.70;70.40;;;;;;5021751;28;20209;-90
2022/04/21 12:53:00;;;;;;;6.90;4.03;;;21.10;71.90;;;;;;5030361;28;20231;-91
2022/04/21 12:55:31;;;;;;;5.20;3.50;;;21.20;70.90;;;;;;5025614;28;20210;-90
2022/04/21 12:58:05;;;;;;;4.32;3.60;;;21.80;71.90;;;;;;5025503;28;20309;-92
2022/04/21 13:00:45;;;;;;;3.65;3.05;;;21.90;69.20;;;;;;5030238;28;20213;-91
2022/04/21 13:03:14;;;;;;;5.43;3.60;;;21.00;70.70;;;;;;5017167;28;20233;-91
2022/04/21 13:05:53;;;;;;;5.15;3.20;;;20.90;70.70;;;;;;5012573;28;20198;-92
2022/04/21 13:08:25;;;;;;;4.93;3.55;;;21.10;72.00;;;;;;5032336;28;20233;-92
2022/04/21 13:11:00;;;;;;;7.72;3.30;;;22.00;72.40;;;;;;5024029;28;20213;-91
2022/04/21 13:13:30;;;;;;;6.07;3.38;;;21.00;72.10;;;;;;5026900;28;20209;-91
2022/04/21 13:15:58;;;;;;;7.18;3.55;;;21.50;72.80;;;;;;5027037;28;20198;-91
2022/04/21 13:18:29;;;;;;;5.38;3.33;;;22.50;73.20;;;;;;5025822;28;20220;-91
2022/04/21 13:23:45;;;;;;;7.88;3.97;;;22.20;72.80;;;;;;5039454;28;20236;-88
2022/04/21 13:26:12;;;;;;;5.05;3.83;;;21.00;69.90;;;;;;5013985;28;20210;-90
2022/04/21 13:28:56;;;;;;;5.35;3.63;;;20.90;71.60;;;;;;5015035;28;20650;-89
2022/04/21 13:34:10;;;;;;;6.20;4.03;;;21.00;71.90;;;;;;5026366;28;20215;-85
2022/04/21 13:36:38;;;;;;;4.78;3.05;;;21.00;71.40;;;;;;5022383;28;20240;-90
2022/04/21 13:39:19;;;;;;;4.25;2.70;;;20.80;70.20;;;;;;5011156;28;20210;-91
2022/04/21 13:41:49;;;;;;;4.63;3.30;;;20.80;70.30;;;;;;5019981;28;20241;-90
2022/04/21 13:44:21;;;;;;;4.68;2.92;;;20.90;71.30;;;;;;5036467;28;20233;-92
2022/04/21 13:47:12;;;;;;;5.25;3.08;;;20.90;71.10;;;;;;5025914;28;20210;-90
2022/04/21 13:49:46;;;;;;;5.35;3.30;;;20.80;72.00;;;;;;5022692;28;20233;-87
2022/04/21 13:52:15;;;;;;;6.85;3.28;;;20.80;72.20;;;;;;5024981;28;20291;-90